Terminal Aerodrome Forecast
Issued by NWS Cleveland, OH

Home | Current Version | Previous Version | Graphics & Text | Print | Product List | Glossary On
Versions: 1 2 3 4 5 6 7 8 9 10 11 12 13 14 15 16 17 18 19 20 21
000
FTUS41 KCLE 010524
TAFCAK
TAF
KCAK 010524Z 0106/0206 VRB03KT P6SM SKC
     FM010900 VRB03KT 4SM BR SKC
     FM011300 26007KT P6SM SCT045
     FM011800 27005KT P6SM BKN045
     FM012200 VRB03KT P6SM BKN250
     FM020200 00000KT 4SM BR BKN250=

USA.gov is the U.S. government's official web portal to all federal, state and local government web resources and services.